AirNav   Pilot Hours Calculator
 
 1005 users online  

NJ44 Liberty Hall Heliport
Elizabeth, New Jersey, USA

GOING TO ELIZABETH?


FAA INFORMATION EFFECTIVE 10 OCTOBER 2019

Location

FAA Identifier: NJ44
Lat/Long: 40-40-30.3680N 074-14-43.5250W
40-40.506133N 074-14.725417W
40.6751022,-74.2454236
(estimated)
Elevation: 43 ft. / 13 m (estimated)
Variation: 12W (1985)
From city: 1 mile NW of ELIZABETH, NJ
Time zone: UTC -4 (UTC -5 during Standard Time)
Zip code: 07083

Heliport Operations

Heliport use: Private use. Permission required prior to landing
Activation date: 06/1964
Control tower: no
ARTCC: NEW YORK CENTER
FSS: MILLVILLE FLIGHT SERVICE STATION
Attendance: UNATNDD
Wind indicator: yes
Segmented circle: no

Heliport Communications

WX AWOS-3 at LDJ (3 nm S): 124.025 (908-862-7383)
WX ASOS at EWR (4 nm E): PHONE 973-621-2892
WX AWOS-3 at MMU (11 nm NW): PHONE 973-290-0135
WX AWOS-3PT at JRB (11 nm E): 128.175 (212-425-1534)
WX ASOS at CDW (12 nm N): 135.5 (973-575-4417)
WX ASOS at TEB (13 nm NE): 132.025 (201-393-0855)
WX ASOS at LGA (18 nm E): PHONE 718-672-6317
WX ASOS at SMQ (20 nm W): 120.6 (908-722-2139)

Nearby radio navigation aids

VOR radial/distance  VOR name  Freq  Var
TEBr230/13.3TETERBORO VOR/DME108.4011W
CRIr294/16.4CANARSIE VOR/DME112.3011W
LGAr261/18.3LA GUARDIA VOR/DME113.1012W
JFKr289/21.7KENNEDY VOR/DME115.9012W
COLr001/22.2COLTS NECK VOR/DME115.4011W
SBJr086/23.3SOLBERG VOR/DME112.9010W
SAXr162/27.0SPARTA VORTAC115.7011W
BWZr117/27.2BROADWAY VOR/DME114.2011W
RBVr032/30.6ROBBINSVILLE VORTAC113.8010W
STWr135/34.2STILLWATER VOR/DME109.6011W
ARDr060/39.4YARDLEY VOR/DME108.2010W

 
NDB name  Hdg/Dist  Freq  Var  ID
CHATHAM128/9.325413WCAT -.-. .- -
TORBY225/9.321412WTE - .
LAKEHURST017/38.039611WNEL -. . .-..
BABYLON284/39.227514WBBN -... -... -.

Heliport Services

Airframe service: NONE
Powerplant service: NONE

Runway Information

Helipad H1

Dimensions: 200 x 200 ft. / 61 x 61 m
Surface: turf, in fair condition
Latitude: 40-40.506133N
Longitude: 074-14.725417W
Elevation: 43.0 ft.
Traffic pattern: leftleft
Markings: none, in fair condition
Obstructions: 50 ft. trees

Heliport Ownership and Management from official FAA records

Ownership: Privately-owned
Owner: NUI CORPORATION
1285 CO HWY 107
FORT JOHNSON, NY 12070
Phone 201-289-5000
Manager: JOHN KARE
555 RT 202206 BOX 760
BEADMINSTER, NJ 07921-0760
Phone 201-289-5000

Heliport Operational Statistics

Aircraft based on the field: 1
Helicopters: 1
    

Additional Remarks

FOR CD CTC NEW YORK APCH AT 800-645-3206.

Instrument Procedures

There are no published instrument procedures at NJ44.

Some nearby airports with instrument procedures:

KLDJ - Linden Airport (3 nm S)
KEWR - Newark Liberty International Airport (4 nm E)
KMMU - Morristown Municipal Airport (11 nm NW)
KJRB - Downtown Manhattan/Wall Street Heliport (11 nm E)
KJRA - West 30th St Heliport (12 nm NE)
KCDW - Essex County Airport (12 nm N)
6N5 - East 34th Street Heliport (13 nm E)
KTEB - Teterboro Airport (13 nm NE)
N07 - Lincoln Park Airport (17 nm N)
KLGA - LaGuardia Airport (18 nm E)
 
Loc | Ops | Rwys | IFR | FBO | Links
Com | Nav | Svcs | Stats | Notes
Area around NJ44 (Liberty Hall Heliport)
 
Road maps at: MapQuest Bing Google
 
Aerial photo
No photo
 
Sectional chart

 
Airport distance calculator
Flying to Liberty Hall Heliport? Find the distance to fly.

From to NJ44

Sunrise and sunset
Times for 20-Oct-2019
 Local
(UTC-4)
 Zulu
(UTC)
Morning civil twilight06:4710:47
Sunrise07:1511:15
Sunset18:0922:09
Evening civil twilight18:3722:37

Current date and time
Zulu (UTC)  20-Oct-2019 15:42:07
Local (UTC-4)  20-Oct-2019 11:42:07
 
METAR
KLDJ 
3nm S 
201515Z AUTO 00000KT 10SM CLR 14/08 A3004 RMK AO2 T01360081
KEWR 
4nm E 
201451Z 03004KT 10SM FEW022 BKN095 OVC180 12/08 A3004 RMK AO2 SLP173 T01220083 50005 $
KMMU 
10nm NW 
201445Z 00000KT 10SM OVC100 09/08 A3006
KJRB 
11nm E 
201521Z AUTO 03008KT BKN019 OVC090 15/11 A3005 RMK AO2 PWINO
KCDW 
13nm N 
201453Z 00000KT 10SM BKN100 11/07 A3006 RMK AO2 SLP184 T01060067 50003
KNYC 
14nm NE 
201451Z AUTO 00000KT 10SM FEW020 BKN025 OVC100 14/09 A3007 RMK AO2 SLP174 T01390089 50006 $
KTEB 
15nm NE 
201451Z 36003KT 10SM BKN100 12/08 A3004 RMK AO2 SLP173 T01170078 50005
KLGA 
18nm E 
201504Z 07007KT 10SM BKN025 BKN033 OVC040 14/09 A3004 RMK AO2 T01390089
KSMQ 
19nm W 
ASOS 120.60 908-722-2139
201453Z AUTO 00000KT 10SM BKN120 11/07 A3002 RMK AO2 SLP168 T01060072 50002
TAF
KEWR 
4nm E 
201431Z 2015/2118 VRB03KT P6SM SCT030 BKN100 BKN250 FM201600 VRB04KT P6SM -RA SCT030 BKN100 FM201800 VRB05KT 6SM -RA BKN020 OVC250 FM210300 03009G15KT P6SM -RA BKN030 FM210400 03009G15KT P6SM BKN030 FM210900 01009G15KT P6SM SCT030 FM211000 01009G15KT P6SM SCT030
KTEB 
15nm NE 
201431Z 2015/2118 VRB03KT P6SM SCT030 BKN100 BKN250 FM201600 VRB03KT P6SM -RA SCT030 BKN100 FM201800 VRB03KT 6SM -RA BKN020 OVC250 FM210400 03006KT P6SM BKN030 FM210800 01007KT P6SM SCT030 FM210900 01007KT P6SM SCT030 FM211700 04007KT P6SM FEW030
KLGA 
18nm E 
201431Z 2015/2118 05005KT P6SM SCT030 BKN100 BKN250 FM201600 09006KT P6SM -RA SCT030 BKN100 FM201800 VRB05KT 6SM -RA BKN020 OVC250 FM210300 04009G15KT P6SM -RA OVC030 FM210400 04009G15KT P6SM BKN030 FM210900 02009G15KT P6SM SCT030 FM211000 02009G15KT P6SM SCT030
NOTAMs
Click for the latest NOTAMs
NOTAMs are issued by the DoD/FAA and will open in a separate window not controlled by AirNav.

 

 
 

Would you like to see your business listed on this page?

 If your business provides an interesting product or service to pilots, flight crews, aircraft, or users of the Liberty Hall Heliport, you should consider listing it here.  To start the listing process, click on the button below
 
Add a business
 

Other Pages about Liberty Hall Heliport

Update a link
 
Copyright © AirNav, LLC. All rights reserved. Privacy Policy  Contact